PORT of AGATHONISI

Država: Greece Država: Greece (GR)
Širina / Dužina: 37.452475° / 26.966° Prikaži na mapi Prikaži na mapi
Lokalno vreme:  UTC +3
UN/LOCODE: GRAGN

Skorašnji dolasci i odlasci


Ime plovila
Dolazak (UTC)
Dolazak (LT)
Odlazak (UTC)
Odlazak (LT)
Vessel Type: Putnički brodovi  NISOS KALYMNOS 2014-09-16 13:28:00 2014-09-16 16:28:00 2014-09-16 13:48:00 2014-09-16 16:48:00
Vessel Type: Putnički brodovi  ANNAEXPRESS 2014-09-15 12:41:00 2014-09-15 15:41:00 2014-09-16 05:04:00 2014-09-16 08:04:00
Vessel Type: Jahte i drugi  BLUE WIND 2014-09-14 10:27:00 2014-09-14 13:27:00 2014-09-15 06:10:00 2014-09-15 09:10:00
Vessel Type: Putnički brodovi  NISOS KALYMNOS 2014-09-14 14:25:00 2014-09-14 17:25:00 2014-09-14 14:38:00 2014-09-14 17:38:00
Vessel Type: Tankeri  MARIA 2014-09-12 13:43:00 2014-09-12 16:43:00 2014-09-13 08:28:00 2014-09-13 11:28:00
Vessel Type: Putnički brodovi  NISOS KALYMNOS 2014-09-12 13:28:00 2014-09-12 16:28:00 2014-09-12 13:41:00 2014-09-12 16:41:00
Vessel Type: Putnički brodovi  NISOS KALYMNOS 2014-09-12 08:43:00 2014-09-12 11:43:00 2014-09-12 09:00:00 2014-09-12 12:00:00
Vessel Type: Jahte i drugi  ANDREA 2014-09-08 08:26:00 2014-09-08 11:26:00 2014-09-09 06:58:00 2014-09-09 09:58:00
Vessel Type: Putnički brodovi  NISOS KALYMNOS 2014-09-05 14:05:00 2014-09-05 17:05:00 2014-09-05 14:30:00 2014-09-05 17:30:00
Vessel Type: Putnički brodovi  NISOS KALYMNOS 2014-09-05 10:31:00 2014-09-05 13:31:00 2014-09-05 10:51:00 2014-09-05 13:51:00

Očekivani dolasci


Ime plovila
Scheduled Arrival (UTC)
Planirani dolazak (lokalno vreme)
Procenjeno vreme dolaska (UTC)
Procenjeno vreme dolaska (lokalno)
Nema pronađenih zapisa

Wind Forecast


    
Vreme (UTC)
Brzina
Direction
Temperature
2014-09-20 18:00:00 22 knots 342° 24°C
2014-09-20 21:00:00 18 knots 359° 24°C
2014-09-21 00:00:00 15 knots 23°C
2014-09-21 03:00:00 12 knots 359° 22°C
2014-09-21 06:00:00 10 knots 358° 22°C
2014-09-21 09:00:00 10 knots 319° 24°C
2014-09-21 12:00:00 13 knots 291° 24°C
2014-09-21 15:00:00 12 knots 281° 24°C
2014-09-21 18:00:00 9 knots 282° 24°C
2014-09-21 21:00:00 7 knots 278° 24°C
2014-09-22 00:00:00 4 knots 310° 24°C
2014-09-22 03:00:00 4 knots 186° 24°C
2014-09-22 06:00:00 6 knots 152° 23°C
2014-09-22 09:00:00 6 knots 223° 23°C
2014-09-22 12:00:00 8 knots 260° 23°C
2014-09-22 15:00:00 8 knots 261° 25°C
2014-09-22 18:00:00 7 knots 226° 25°C

NO_PHOTO

No Photos for this port. Be the first to upload one!